Pleasant Hill, Illinois
Current Conditions -  °F | °C
As of 1:15 PM on Saturday 25 Oct 2014 (Local Time) from KPPQ Reporting Station
Clear Clear  
Wind Chill: 78°   Ceiling: Unl
Heat Index: 78°   Visibility: 10mi
Dew Point: 49°   Wind: 5mph
Humidity: 36%   Direction: 310°NW
Pressure: 30.04"   Gusts: NA
Location:  39.44°N, 90.87°W
Report Text: KPPQ 251815Z AUTO 31004KT 10SM CLR 25/10 A3004 RMK AO2 T02540095
Loading
Personal Weather Stations






























Interactive Weather Map
Tropical Storm Tracking
New forecast layout! Learn more

10-Day Weather Forecast

Advertisements
Track Severe Weather on mobile